Kezdőlap
METAR-TAF:

METAR-TAF

Repülőterek :

Drezdai repülőtér

Drezda, Németország

földrajzi szélesség: 51-08N, földrajzi hosszúság: 013-45E, magasság: 230 m

Jelenlegi meteorológiai megfigyelések

A jelentés 13 perccel ezelõtt készült, 01:50 UTC
Nyugati szél 12 kt, délnyugati és nyugat-északnyugati között változik
Hőmérséklet 3°C
Páratartalom 70%
Légköri nyomás 999 hPa
Látótávolság 10 km, vagy több
Kevés felhő 3400 lábon

METAR: EDDC 290150Z 26012KT 220V290 9999 FEW034 03/M02 Q0999

Idő: 03:03 (02:03 UTC)

Előrejelzés

A jelentés 3 órával és 3 perccel ezelõtt készült, 23:00 UTC
Az előrejelzés 29-én 00 óra UTC és 29-én 24 óra UTC között érvényes
Nyugat-délnyugati szél 12 kt
Látótávolság 10 km, vagy több
Szakadozott felhőzet 4000 lábon
29-én 00 óra UTC és 29-én 24 óra UTC között ideiglenes
Nyugati szél 15 kt széllökések: 25 kt

TAF: EDDC 282300Z 2900/2924 24012KT 9999 BKN040 TEMPO 2900/2924 26015G25KT

Meteorológiai megfigyelések és előrejelzések több, mint 4000 repülőtéren (METAR és TAF jelentéseket).

A térképen piros és sárga pontok jelzik az elérhető meteorológiai állomásokat.

Mozgassa az egeret a pont fölött, hogy megjelenjen az állomás neve.

Azután kattintson az időjárási megfigyelések és előrejelzések megtekintéséhez.

A térkép megváltoztatása: kattintson a fekete keresztel jelölt zöld gombra ráközelítéshez, a vonallal jelölt zöld gombra távolításhoz, vagy a zöld nyilakra a szomszédos térképek eléréséhez.


METAR-TAF: